createdAt,value
2022-10-09T00:01:12.979Z,50.10
2022-10-09T00:03:41.417Z,50.20
2022-10-09T00:06:10.033Z,50.00
2022-10-09T00:08:37.379Z,49.90
2022-10-09T00:11:05.601Z,49.80
2022-10-09T00:13:33.975Z,49.40
2022-10-09T00:16:03.450Z,49.30
2022-10-09T00:18:30.301Z,49.60
2022-10-09T00:20:57.103Z,49.50
2022-10-09T00:23:23.792Z,49.50
2022-10-09T00:25:51.873Z,49.80
2022-10-09T00:28:44.575Z,49.60
2022-10-09T00:31:12.096Z,49.70
2022-10-09T00:33:39.586Z,49.40
2022-10-09T00:36:08.541Z,49.30
2022-10-09T00:38:35.719Z,49.30
2022-10-09T00:41:02.752Z,49.00
2022-10-09T00:43:42.329Z,48.90
2022-10-09T00:46:19.077Z,48.70
2022-10-09T00:48:55.377Z,48.30
2022-10-09T00:51:22.190Z,48.00
2022-10-09T00:53:49.000Z,47.90
2022-10-09T00:56:15.848Z,47.90
2022-10-09T00:58:42.654Z,47.70
2022-10-09T01:01:09.638Z,47.70
2022-10-09T01:03:37.727Z,47.70
2022-10-09T01:06:12.228Z,47.50
2022-10-09T01:08:47.926Z,47.40
2022-10-09T01:11:22.587Z,47.60
2022-10-09T01:13:56.808Z,47.20
2022-10-09T01:16:30.936Z,47.20
2022-10-09T01:19:05.949Z,47.30
2022-10-09T01:21:38.382Z,47.60
2022-10-09T01:24:21.876Z,47.80
2022-10-09T01:27:10.633Z,48.20
2022-10-09T01:29:42.254Z,48.20
2022-10-09T01:32:11.497Z,48.20
2022-10-09T01:34:40.000Z,48.00
2022-10-09T01:37:08.973Z,47.90
2022-10-09T01:39:37.224Z,47.90
2022-10-09T01:42:05.869Z,47.70
2022-10-09T01:44:35.968Z,47.90
2022-10-09T01:47:02.864Z,47.90
2022-10-09T01:49:43.475Z,48.00
2022-10-09T01:52:21.536Z,48.50
2022-10-09T01:54:59.814Z,48.70
2022-10-09T01:57:35.238Z,49.40
2022-10-09T02:00:07.029Z,49.30
2022-10-09T02:02:34.549Z,49.50
2022-10-09T02:05:01.965Z,49.40
2022-10-09T02:07:31.096Z,49.30
2022-10-09T02:09:59.041Z,49.60
2022-10-09T02:12:31.653Z,49.20
2022-10-09T02:14:58.483Z,49.50
2022-10-09T02:17:31.687Z,49.50
2022-10-09T02:20:03.744Z,49.90
2022-10-09T02:22:32.009Z,49.40
2022-10-09T02:25:01.567Z,49.50
2022-10-09T02:27:30.384Z,49.50
2022-10-09T02:29:59.138Z,49.60
2022-10-09T02:32:26.289Z,49.40
2022-10-09T02:34:53.061Z,49.70
2022-10-09T02:37:19.917Z,49.50
2022-10-09T02:39:46.642Z,49.40
2022-10-09T02:42:13.420Z,49.70
2022-10-09T02:44:41.541Z,49.30
2022-10-09T02:47:08.268Z,49.40
2022-10-09T02:49:34.998Z,49.60
2022-10-09T02:52:01.820Z,48.90
2022-10-09T02:54:29.023Z,48.90
2022-10-09T02:56:55.779Z,48.60
2022-10-09T02:59:22.478Z,48.20
2022-10-09T03:01:50.652Z,48.00
2022-10-09T03:04:17.428Z,47.90
2022-10-09T03:06:44.188Z,47.80
2022-10-09T03:09:10.876Z,47.70
2022-10-09T03:11:37.603Z,47.60
2022-10-09T03:14:04.320Z,47.50
2022-10-09T03:16:31.095Z,47.50
2022-10-09T03:18:59.206Z,47.50
2022-10-09T03:21:28.121Z,47.40
2022-10-09T03:23:55.252Z,47.90
2022-10-09T03:26:24.018Z,47.70
2022-10-09T03:28:52.139Z,47.80
2022-10-09T03:31:50.776Z,48.30
2022-10-09T03:34:10.767Z,48.20
2022-10-09T03:36:37.506Z,48.00
2022-10-09T03:39:04.317Z,47.70
2022-10-09T03:41:31.066Z,47.60
2022-10-09T03:43:57.755Z,47.60
2022-10-09T03:46:24.621Z,47.80
2022-10-09T03:48:51.395Z,47.90
2022-10-09T03:51:19.714Z,47.70
2022-10-09T03:53:46.467Z,47.70
2022-10-09T03:56:13.170Z,47.60
2022-10-09T03:58:39.878Z,47.60
2022-10-09T04:01:06.652Z,47.60
2022-10-09T04:03:33.391Z,47.90
2022-10-09T04:06:00.088Z,47.90
2022-10-09T04:08:28.254Z,47.80
2022-10-09T04:10:57.241Z,48.00
2022-10-09T04:13:24.084Z,47.90
2022-10-09T04:15:51.084Z,47.90
2022-10-09T04:18:18.153Z,47.90
2022-10-09T04:20:47.681Z,47.70
2022-10-09T04:23:14.387Z,47.50
2022-10-09T04:25:42.485Z,47.30
2022-10-09T04:28:09.220Z,47.40
2022-10-09T04:30:35.987Z,47.40
2022-10-09T04:33:02.747Z,47.40
2022-10-09T04:35:29.492Z,47.20
2022-10-09T04:37:56.210Z,47.10
2022-10-09T04:40:22.913Z,47.00
2022-10-09T04:42:51.365Z,47.60
2022-10-09T04:45:18.331Z,47.00
2022-10-09T04:47:45.050Z,47.00
2022-10-09T04:50:11.750Z,46.80
2022-10-09T04:52:38.726Z,46.90
2022-10-09T04:55:06.446Z,46.80
2022-10-09T04:57:33.364Z,46.80
2022-10-09T05:00:01.436Z,46.90
2022-10-09T05:02:28.350Z,46.80
2022-10-09T05:04:55.094Z,46.80
2022-10-09T05:07:21.800Z,46.80
2022-10-09T05:09:48.481Z,46.90
2022-10-09T05:12:15.243Z,47.10
2022-10-09T05:14:41.987Z,47.50
2022-10-09T05:17:14.050Z,47.80
2022-10-09T05:19:41.103Z,47.80
2022-10-09T05:22:07.834Z,47.90
2022-10-09T05:24:34.529Z,47.80
2022-10-09T05:27:01.278Z,47.60
2022-10-09T05:29:28.041Z,47.60
2022-10-09T05:31:54.810Z,47.30
2022-10-09T05:34:23.082Z,47.20
2022-10-09T05:36:49.858Z,47.30
2022-10-09T05:39:16.922Z,47.50
2022-10-09T05:41:43.632Z,47.70
2022-10-09T05:44:11.511Z,47.60
2022-10-09T05:46:38.258Z,47.70
2022-10-09T05:49:06.060Z,47.50
2022-10-09T05:51:36.282Z,47.30
2022-10-09T05:54:04.433Z,47.30
2022-10-09T05:56:32.831Z,47.10
2022-10-09T05:59:01.322Z,47.10
2022-10-09T06:01:31.351Z,47.00
2022-10-09T06:03:59.904Z,46.90
2022-10-09T06:06:28.478Z,47.10
2022-10-09T06:08:57.290Z,47.00
2022-10-09T06:11:25.851Z,46.90
2022-10-09T06:13:52.710Z,47.10
2022-10-09T06:16:19.558Z,47.00
2022-10-09T06:18:49.252Z,47.10
2022-10-09T06:21:16.937Z,46.90
2022-10-09T06:23:43.735Z,47.20
2022-10-09T06:26:13.351Z,47.30
2022-10-09T06:28:40.541Z,47.30
2022-10-09T06:31:09.588Z,47.50
2022-10-09T06:33:37.793Z,47.50
2022-10-09T06:36:10.212Z,47.90
2022-10-09T06:38:38.548Z,48.00
2022-10-09T06:41:07.025Z,48.30
2022-10-09T06:43:35.260Z,48.40
2022-10-09T06:46:03.698Z,48.80
2022-10-09T06:48:30.934Z,49.00
2022-10-09T06:51:01.315Z,49.40
2022-10-09T06:53:28.229Z,49.80
2022-10-09T06:55:56.820Z,50.30
2022-10-09T06:58:23.602Z,50.40
2022-10-09T07:01:02.209Z,50.80
2022-10-09T07:03:29.323Z,51.30
2022-10-09T07:06:06.034Z,50.80
2022-10-09T07:08:32.836Z,51.20
2022-10-09T07:10:59.633Z,51.10
2022-10-09T07:13:26.405Z,51.40
2022-10-09T07:15:54.775Z,52.70
2022-10-09T07:18:23.309Z,52.40
2022-10-09T07:20:50.149Z,52.50
2022-10-09T07:23:17.073Z,52.50
2022-10-09T07:25:43.898Z,52.80
2022-10-09T07:28:10.782Z,52.90
2022-10-09T07:30:38.027Z,53.00
2022-10-09T07:33:06.549Z,53.00
2022-10-09T07:35:33.376Z,53.30
2022-10-09T07:38:00.122Z,53.70
2022-10-09T07:40:26.889Z,53.40
2022-10-09T07:42:53.617Z,53.20
2022-10-09T07:45:20.370Z,53.30
2022-10-09T07:47:47.110Z,52.60
2022-10-09T07:50:15.315Z,53.00
2022-10-09T07:52:42.110Z,52.90
2022-10-09T07:55:09.194Z,52.70
2022-10-09T07:57:38.341Z,52.70
2022-10-09T08:00:06.363Z,53.30
2022-10-09T08:02:33.179Z,53.70
2022-10-09T08:05:00.017Z,53.30
2022-10-09T08:07:34.784Z,53.10
2022-10-09T08:10:02.084Z,53.30
2022-10-09T08:12:28.919Z,53.10
2022-10-09T08:14:55.681Z,53.00
2022-10-09T08:17:22.534Z,53.10
2022-10-09T08:19:49.915Z,52.90
2022-10-09T08:22:17.047Z,53.10
2022-10-09T08:24:46.433Z,52.80
2022-10-09T08:27:13.603Z,52.80
2022-10-09T08:29:40.556Z,52.80
2022-10-09T08:32:07.352Z,52.70
2022-10-09T08:34:34.124Z,52.70
2022-10-09T08:37:00.847Z,52.80
2022-10-09T08:39:27.592Z,52.60
2022-10-09T08:41:56.000Z,52.30
2022-10-09T08:44:25.226Z,52.10
2022-10-09T08:46:59.191Z,51.90
2022-10-09T08:49:31.489Z,51.90
2022-10-09T08:52:05.232Z,52.00
2022-10-09T08:54:35.541Z,51.50
2022-10-09T08:57:09.911Z,51.60
2022-10-09T08:59:36.796Z,51.70
2022-10-09T09:02:13.336Z,51.30
2022-10-09T09:04:56.500Z,51.10
2022-10-09T09:07:29.747Z,51.10
2022-10-09T09:10:04.512Z,51.00
2022-10-09T09:12:44.250Z,51.00
2022-10-09T09:15:29.304Z,50.90
2022-10-09T09:18:06.938Z,50.60
2022-10-09T09:20:44.722Z,50.40
2022-10-09T09:23:15.520Z,50.40
2022-10-09T09:25:44.339Z,50.50
2022-10-09T09:28:18.247Z,50.20
2022-10-09T09:30:50.473Z,50.20
2022-10-09T09:33:22.188Z,50.10
2022-10-09T09:35:57.179Z,49.90
2022-10-09T09:38:24.349Z,49.90
2022-10-09T09:40:51.512Z,49.70
2022-10-09T09:43:22.016Z,49.60
2022-10-09T09:45:52.121Z,49.60
2022-10-09T09:48:27.463Z,49.50
2022-10-09T09:51:16.250Z,49.40
2022-10-09T09:53:43.098Z,49.50
2022-10-09T09:56:10.976Z,49.20
2022-10-09T09:58:45.048Z,49.60
2022-10-09T10:01:21.732Z,49.30
2022-10-09T10:03:49.919Z,49.20
2022-10-09T10:06:24.455Z,49.20
2022-10-09T10:08:58.922Z,49.00
2022-10-09T10:11:25.847Z,48.90
2022-10-09T10:13:54.019Z,49.40
2022-10-09T10:16:24.312Z,49.50
2022-10-09T10:18:51.650Z,49.80
2022-10-09T10:21:19.974Z,49.40
2022-10-09T10:23:53.115Z,49.30
2022-10-09T10:26:25.162Z,49.20
2022-10-09T10:29:00.336Z,49.10
2022-10-09T10:31:38.689Z,49.20
2022-10-09T10:34:13.660Z,48.60
2022-10-09T10:36:40.642Z,49.20
2022-10-09T10:39:13.653Z,49.10
2022-10-09T10:41:45.169Z,49.00
2022-10-09T10:44:22.910Z,48.40
2022-10-09T10:46:54.883Z,48.00
2022-10-09T10:49:22.761Z,49.00
2022-10-09T10:51:56.995Z,48.00
2022-10-09T10:54:34.683Z,48.20
2022-10-09T10:57:10.117Z,47.70
2022-10-09T10:59:42.525Z,47.90
2022-10-09T11:02:40.958Z,48.40
2022-10-09T11:05:36.338Z,47.70
2022-10-09T11:08:20.255Z,47.20
2022-10-09T11:10:56.814Z,47.70
2022-10-09T11:13:28.728Z,46.90
2022-10-09T11:16:06.522Z,47.70
2022-10-09T11:18:50.420Z,46.40
2022-10-09T11:21:38.004Z,46.90
2022-10-09T11:24:27.828Z,46.30
2022-10-09T11:27:03.591Z,46.30
2022-10-09T11:29:36.815Z,47.20
2022-10-09T11:32:11.933Z,47.20
2022-10-09T11:34:43.535Z,45.40
2022-10-09T11:37:17.890Z,47.20
2022-10-09T11:39:45.638Z,47.00
2022-10-09T11:42:17.223Z,46.20
2022-10-09T11:44:50.055Z,46.80
2022-10-09T11:47:29.674Z,46.10
2022-10-09T11:50:23.028Z,45.10
2022-10-09T11:52:55.586Z,45.70
2022-10-09T11:55:25.646Z,44.50
2022-10-09T11:57:53.041Z,44.30
2022-10-09T12:00:30.454Z,44.80
2022-10-09T12:03:01.348Z,45.10
2022-10-09T12:05:40.947Z,45.70
2022-10-09T12:08:14.042Z,44.80
2022-10-09T12:10:50.633Z,44.00
2022-10-09T12:13:31.479Z,43.70
2022-10-09T12:15:59.408Z,44.70
2022-10-09T12:18:30.118Z,43.70
2022-10-09T12:20:59.713Z,44.30
2022-10-09T12:23:30.120Z,44.30
2022-10-09T12:25:57.453Z,44.40
2022-10-09T12:28:29.909Z,44.00
2022-10-09T12:30:59.451Z,44.00
2022-10-09T12:33:33.462Z,43.00
2022-10-09T12:36:05.373Z,42.90
2022-10-09T12:38:32.576Z,42.10
2022-10-09T12:41:02.653Z,43.20
2022-10-09T12:43:31.482Z,43.10
2022-10-09T12:45:58.955Z,41.60
2022-10-09T12:48:28.942Z,42.10
2022-10-09T12:50:56.064Z,43.30
2022-10-09T12:53:24.366Z,42.20
2022-10-09T12:55:52.855Z,42.20
2022-10-09T12:58:22.231Z,42.20
2022-10-09T13:00:52.284Z,41.90
2022-10-09T13:03:23.876Z,41.80
2022-10-09T13:05:53.153Z,41.00
2022-10-09T13:08:26.522Z,39.90
2022-10-09T13:10:54.271Z,40.00
2022-10-09T13:13:25.025Z,40.70
2022-10-09T13:15:59.310Z,41.00
2022-10-09T13:18:26.288Z,39.80
2022-10-09T13:21:02.516Z,39.50
2022-10-09T13:23:31.573Z,40.90
2022-10-09T13:26:03.149Z,40.50
2022-10-09T13:28:30.785Z,40.10
2022-10-09T13:31:06.391Z,42.00
2022-10-09T13:33:33.290Z,39.50
2022-10-09T13:36:01.541Z,40.60
2022-10-09T13:38:32.681Z,40.40
2022-10-09T13:41:01.765Z,40.80
2022-10-09T13:43:28.885Z,40.20
2022-10-09T13:45:55.843Z,39.70
2022-10-09T13:48:22.775Z,40.00
2022-10-09T13:50:49.546Z,41.40
2022-10-09T13:53:17.749Z,40.30
2022-10-09T13:55:44.871Z,40.00
2022-10-09T13:58:11.651Z,39.50
2022-10-09T14:00:38.441Z,37.90
2022-10-09T14:03:05.258Z,37.20
2022-10-09T14:05:32.049Z,36.90
2022-10-09T14:07:58.862Z,37.30
2022-10-09T14:10:27.145Z,38.00
2022-10-09T14:12:53.891Z,37.60
2022-10-09T14:15:20.799Z,38.50
2022-10-09T14:17:47.972Z,37.60
2022-10-09T14:20:15.079Z,38.30
2022-10-09T14:22:41.784Z,38.00
2022-10-09T14:25:09.706Z,38.50
2022-10-09T14:27:40.366Z,39.00
2022-10-09T14:30:10.966Z,38.10
2022-10-09T14:32:37.701Z,38.40
2022-10-09T14:35:04.913Z,39.00
2022-10-09T14:37:46.897Z,38.80
2022-10-09T14:40:13.698Z,37.80
2022-10-09T14:42:41.803Z,38.20
2022-10-09T14:45:10.141Z,37.80
2022-10-09T14:47:36.878Z,39.00
2022-10-09T14:50:03.961Z,39.40
2022-10-09T14:52:30.734Z,39.50
2022-10-09T14:54:57.476Z,39.40
2022-10-09T14:57:24.197Z,39.80
2022-10-09T14:59:52.773Z,39.30
2022-10-09T15:02:19.765Z,40.00
2022-10-09T15:04:46.533Z,40.30
2022-10-09T15:07:13.290Z,39.70
2022-10-09T15:09:40.015Z,39.70
2022-10-09T15:12:06.742Z,40.40
2022-10-09T15:14:33.519Z,40.00
2022-10-09T15:17:01.615Z,40.30
2022-10-09T15:19:28.533Z,40.30
2022-10-09T15:21:55.339Z,40.10
2022-10-09T15:24:22.111Z,40.20
2022-10-09T15:26:48.827Z,39.80
2022-10-09T15:29:15.562Z,40.00
2022-10-09T15:31:42.390Z,40.40
2022-10-09T15:34:15.347Z,40.30
2022-10-09T15:36:42.083Z,39.90
2022-10-09T15:39:08.858Z,40.10
2022-10-09T15:41:38.008Z,40.00
2022-10-09T15:44:07.511Z,39.90
2022-10-09T15:46:34.749Z,39.80
2022-10-09T15:49:01.507Z,39.70
2022-10-09T15:51:29.641Z,40.10
2022-10-09T15:53:58.397Z,40.40
2022-10-09T15:56:25.397Z,40.10
2022-10-09T15:58:53.952Z,40.40
2022-10-09T16:01:21.578Z,40.80
2022-10-09T16:03:49.070Z,40.90
2022-10-09T16:06:18.567Z,41.10
2022-10-09T16:08:47.803Z,40.90
2022-10-09T16:11:19.024Z,40.40
2022-10-09T16:13:48.666Z,41.30
2022-10-09T16:16:17.520Z,41.10
2022-10-09T16:18:44.742Z,41.30
2022-10-09T16:21:13.632Z,41.20
2022-10-09T16:23:40.527Z,41.50
2022-10-09T16:26:09.080Z,41.50
2022-10-09T16:28:36.316Z,41.60
2022-10-09T16:31:03.709Z,41.60
2022-10-09T16:33:34.332Z,41.70
2022-10-09T16:36:40.442Z,41.50
2022-10-09T16:39:07.273Z,41.70
2022-10-09T16:41:39.544Z,42.10
2022-10-09T16:44:15.249Z,41.90
2022-10-09T16:46:55.897Z,41.80
2022-10-09T16:49:24.962Z,41.70
2022-10-09T16:51:52.009Z,42.10
2022-10-09T16:54:18.765Z,42.20
2022-10-09T16:56:46.920Z,42.30
2022-10-09T16:59:13.878Z,42.40
2022-10-09T17:01:41.079Z,42.30
2022-10-09T17:04:08.169Z,42.40
2022-10-09T17:06:34.980Z,42.50
2022-10-09T17:09:02.309Z,42.30
2022-10-09T17:11:30.453Z,42.50
2022-10-09T17:13:58.693Z,42.60
2022-10-09T17:16:27.723Z,42.60
2022-10-09T17:18:55.252Z,42.80
2022-10-09T17:21:22.053Z,42.80
2022-10-09T17:23:52.214Z,42.80
2022-10-09T17:26:20.451Z,42.90
2022-10-09T17:28:48.254Z,42.90
2022-10-09T17:31:19.002Z,43.00
2022-10-09T17:33:47.123Z,43.00
2022-10-09T17:36:15.641Z,43.00
2022-10-09T17:38:42.837Z,43.30
2022-10-09T17:41:11.212Z,43.00
2022-10-09T17:43:38.644Z,43.20
2022-10-09T17:46:06.535Z,43.30
2022-10-09T17:48:35.805Z,43.50
2022-10-09T17:51:03.752Z,43.60
2022-10-09T17:53:30.779Z,43.50
2022-10-09T17:56:02.039Z,43.60
2022-10-09T17:58:29.073Z,43.70
2022-10-09T18:00:55.996Z,43.80
2022-10-09T18:03:22.900Z,44.10
2022-10-09T18:05:51.229Z,44.10
2022-10-09T18:08:19.464Z,44.10
2022-10-09T18:10:46.560Z,44.20
2022-10-09T18:13:13.427Z,44.40
2022-10-09T18:15:42.814Z,44.10
2022-10-09T18:18:10.406Z,44.20
2022-10-09T18:20:38.756Z,44.40
2022-10-09T18:23:08.254Z,44.50
2022-10-09T18:25:35.663Z,44.50
2022-10-09T18:28:02.620Z,44.60
2022-10-09T18:30:29.427Z,44.50
2022-10-09T18:32:56.273Z,44.40
2022-10-09T18:35:23.298Z,44.50
2022-10-09T18:37:50.318Z,44.50
2022-10-09T18:40:18.806Z,44.60
2022-10-09T18:42:45.831Z,44.60
2022-10-09T18:45:14.281Z,44.60
2022-10-09T18:47:41.540Z,44.60
2022-10-09T18:50:10.862Z,44.70
2022-10-09T18:52:38.761Z,44.60
2022-10-09T18:55:08.829Z,44.70
2022-10-09T18:57:40.803Z,44.80
2022-10-09T19:00:08.811Z,44.90
2022-10-09T19:02:37.561Z,44.80
2022-10-09T19:05:04.825Z,44.80
2022-10-09T19:07:31.808Z,44.90
2022-10-09T19:09:58.563Z,44.80
2022-10-09T19:12:25.725Z,45.00
2022-10-09T19:14:53.803Z,44.90
2022-10-09T19:17:20.610Z,44.80
2022-10-09T19:19:47.601Z,44.90
2022-10-09T19:22:17.311Z,45.00
2022-10-09T19:24:46.117Z,45.00
2022-10-09T19:27:12.928Z,45.00
2022-10-09T19:29:39.660Z,45.00
2022-10-09T19:32:07.749Z,45.20
2022-10-09T19:34:34.579Z,45.00
2022-10-09T19:37:01.385Z,45.10
2022-10-09T19:39:28.249Z,45.00
2022-10-09T19:41:55.007Z,45.20
2022-10-09T19:44:21.843Z,45.20
2022-10-09T19:46:48.706Z,45.10
2022-10-09T19:49:16.796Z,45.10
2022-10-09T19:51:46.703Z,45.20
2022-10-09T19:54:13.475Z,45.30
2022-10-09T19:56:40.414Z,45.20
2022-10-09T19:59:08.345Z,45.20
2022-10-09T20:01:37.009Z,45.20
2022-10-09T20:04:10.824Z,45.20
2022-10-09T20:06:40.834Z,45.30
2022-10-09T20:09:09.318Z,45.40
2022-10-09T20:11:36.581Z,45.20
2022-10-09T20:14:03.958Z,45.40
2022-10-09T20:16:30.886Z,45.30
2022-10-09T20:18:58.135Z,45.30
2022-10-09T20:21:25.302Z,45.30
2022-10-09T20:23:55.655Z,45.50
2022-10-09T20:26:22.567Z,45.60
2022-10-09T20:28:50.345Z,45.50
2022-10-09T20:31:19.635Z,45.60
2022-10-09T20:33:47.526Z,45.60
2022-10-09T20:36:23.037Z,46.00
2022-10-09T20:38:50.085Z,45.80
2022-10-09T20:41:19.281Z,45.90
2022-10-09T20:43:50.442Z,46.50
2022-10-09T20:46:17.368Z,45.90
2022-10-09T20:48:44.381Z,45.80
2022-10-09T20:51:11.296Z,45.90
2022-10-09T20:53:38.101Z,45.90
2022-10-09T20:56:06.678Z,46.10
2022-10-09T20:58:35.559Z,45.90
2022-10-09T21:01:04.639Z,46.10
2022-10-09T21:03:31.498Z,46.00
2022-10-09T21:05:58.198Z,46.10
2022-10-09T21:08:24.986Z,46.30
2022-10-09T21:10:51.813Z,46.30
2022-10-09T21:13:18.548Z,46.20
2022-10-09T21:15:48.782Z,46.20
2022-10-09T21:18:17.224Z,46.40
2022-10-09T21:20:45.840Z,46.20
2022-10-09T21:23:15.037Z,46.30
2022-10-09T21:25:47.893Z,46.30
2022-10-09T21:28:14.805Z,46.30
2022-10-09T21:30:41.966Z,46.40
2022-10-09T21:33:10.574Z,46.30
2022-10-09T21:35:41.419Z,46.30
2022-10-09T21:38:11.851Z,46.50
2022-10-09T21:40:38.814Z,46.40
2022-10-09T21:43:05.605Z,46.30
2022-10-09T21:45:32.391Z,46.30
2022-10-09T21:47:59.230Z,46.30
2022-10-09T21:50:27.323Z,46.30
2022-10-09T21:52:54.207Z,46.50
2022-10-09T21:55:21.218Z,46.60
2022-10-09T21:57:48.352Z,46.30
2022-10-09T22:00:15.350Z,46.40
2022-10-09T22:02:42.185Z,46.60
2022-10-09T22:05:09.665Z,46.50
2022-10-09T22:07:37.884Z,46.40
2022-10-09T22:10:06.163Z,46.50
2022-10-09T22:12:34.061Z,46.30
2022-10-09T22:15:00.773Z,46.40
2022-10-09T22:17:27.598Z,46.30
2022-10-09T22:19:54.370Z,46.30
2022-10-09T22:22:21.133Z,46.60
2022-10-09T22:24:49.282Z,46.60
2022-10-09T22:27:16.178Z,46.70
2022-10-09T22:29:42.959Z,46.50
2022-10-09T22:32:09.767Z,46.60
2022-10-09T22:34:37.084Z,46.50
2022-10-09T22:37:04.199Z,46.50
2022-10-09T22:39:31.034Z,46.30
2022-10-09T22:41:59.164Z,46.50
2022-10-09T22:44:25.991Z,47.00
2022-10-09T22:46:52.769Z,46.20
2022-10-09T22:49:19.557Z,46.10
2022-10-09T22:51:46.559Z,46.20
2022-10-09T22:54:14.001Z,46.10
2022-10-09T22:56:44.653Z,46.20
2022-10-09T22:59:15.919Z,46.10
2022-10-09T23:01:45.823Z,46.90
2022-10-09T23:04:14.204Z,46.00
2022-10-09T23:06:41.466Z,46.10
2022-10-09T23:09:10.665Z,46.10
2022-10-09T23:11:37.525Z,46.30
2022-10-09T23:14:05.019Z,46.20
2022-10-09T23:16:34.282Z,46.30
2022-10-09T23:19:06.379Z,46.40
2022-10-09T23:21:34.434Z,46.40
2022-10-09T23:24:01.287Z,46.20
2022-10-09T23:26:32.445Z,46.30
2022-10-09T23:29:01.358Z,46.30
2022-10-09T23:31:29.325Z,46.30
2022-10-09T23:33:57.661Z,46.20
2022-10-09T23:36:26.361Z,46.40
2022-10-09T23:38:53.981Z,46.50
2022-10-09T23:41:22.215Z,46.60
2022-10-09T23:43:49.509Z,46.60
2022-10-09T23:46:18.573Z,46.40
2022-10-09T23:48:46.840Z,46.70
2022-10-09T23:51:15.915Z,46.60
2022-10-09T23:53:43.568Z,46.60
2022-10-09T23:56:18.647Z,46.60
2022-10-09T23:58:46.001Z,46.90
